Time;durP1;ratioP1;P1;durP2;ratioP2;P2;SDS_P1;SDS_P2;PMS_P1;PMS_P2;Temp;Humidity;BMP_temperature;BMP_pressure;BME280_temperature;BME280_humidity;BME280_pressure;Samples;Min_cycle;Max_cycle;Signal;HPM_P1;HPM_P2
2022/06/05 00:02:22;;;;;;;67.93;29.55;;;;;;;;;;4981010;28;20082;-53
2022/06/05 00:05:33;;;;;;;81.63;31.88;;;;;;;;;;4982738;28;20117;-52
2022/06/05 00:08:03;;;;;;;96.68;33.60;;;;;;;;;;4927101;29;20120;-54
2022/06/05 00:10:41;;;;;;;83.03;30.60;;;;;;;;;;4927045;29;20071;-53
2022/06/05 00:13:18;;;;;;;79.78;32.42;;;;;;;;;;4958298;28;20082;-54
2022/06/05 00:15:52;;;;;;;89.53;34.92;;;;;;;;;;4977992;28;20078;-51
2022/06/05 00:18:18;;;;;;;106.05;35.15;;;;;;;;;;4982854;28;20133;-45
2022/06/05 00:20:45;;;;;;;83.03;34.50;;;;;;;;;;4980218;28;20105;-65
2022/06/05 00:23:18;;;;;;;102.90;38.10;;;;;;;;;;4981620;28;20093;-64
2022/06/05 00:25:51;;;;;;;92.68;35.55;;;;;;;;;;4981469;28;20569;-64
2022/06/05 00:28:22;;;;;;;105.60;36.30;;;;;;;;;;4980997;28;20109;-64
2022/06/05 00:30:55;;;;;;;104.90;34.45;;;;;;;;;;4980611;28;20668;-65
2022/06/05 00:33:29;;;;;;;91.70;35.50;;;;;;;;;;4978904;28;20054;-64
2022/06/05 00:36:22;;;;;;;99.47;35.67;;;;;;;;;;4981027;28;20109;-64
2022/06/05 00:39:11;;;;;;;107.18;34.80;;;;;;;;;;4980980;28;20074;-64
2022/06/05 00:41:52;;;;;;;76.20;31.30;;;;;;;;;;4940019;28;20479;-48
2022/06/05 00:44:28;;;;;;;79.82;32.53;;;;;;;;;;4980555;28;20077;-50
2022/06/05 00:47:08;;;;;;;88.00;32.90;;;;;;;;;;4981846;28;20592;-53
2022/06/05 00:49:37;;;;;;;103.88;35.17;;;;;;;;;;4976656;28;20065;-49
2022/06/05 00:52:11;;;;;;;91.55;34.88;;;;;;;;;;4962448;28;20110;-52
2022/06/05 00:54:38;;;;;;;98.70;34.67;;;;;;;;;;4959510;28;20094;-48
2022/06/05 00:57:10;;;;;;;91.78;34.05;;;;;;;;;;4958634;28;20133;-48
2022/06/05 00:59:44;;;;;;;94.82;32.95;;;;;;;;;;4961535;28;20082;-51
2022/06/05 01:02:11;;;;;;;;;;;;;;;;;;4959331;28;20051;-54
2022/06/05 01:04:39;;;;;;;88.60;32.22;;;;;;;;;;4958934;28;20437;-51
2022/06/05 01:07:13;;;;;;;73.45;30.95;;;;;;;;;;4980894;28;20074;-51
2022/06/05 01:09:41;;;;;;;82.45;31.80;;;;;;;;;;4980913;28;20051;-50
2022/06/05 01:12:17;;;;;;;92.15;32.72;;;;;;;;;;4979007;28;20187;-51
2022/06/05 01:14:59;;;;;;;83.78;32.40;;;;;;;;;;4980102;28;20086;-51
2022/06/05 01:17:46;;;;;;;90.07;32.90;;;;;;;;;;4979982;28;20527;-54
2022/06/05 01:20:30;;;;;;;87.63;33.58;;;;;;;;;;4979605;28;20050;-44
2022/06/05 01:23:19;;;;;;;67.47;28.90;;;;;;;;;;4981047;28;20145;-49
2022/06/05 01:25:58;;;;;;;96.10;33.75;;;;;;;;;;4981143;28;21002;-48
2022/06/05 01:28:25;;;;;;;98.40;33.42;;;;;;;;;;4978954;28;20081;-49
2022/06/05 01:30:52;;;;;;;;;;;;;;;;;;4978618;28;20046;-46
2022/06/05 01:33:27;;;;;;;99.53;34.83;;;;;;;;;;4978097;28;20404;-64
2022/06/05 01:36:08;;;;;;;88.80;34.30;;;;;;;;;;4981053;28;20505;-48
2022/06/05 01:38:47;;;;;;;92.45;34.33;;;;;;;;;;4980680;28;20507;-50
2022/06/05 01:41:22;;;;;;;96.78;35.80;;;;;;;;;;4978523;28;20081;-51
2022/06/05 01:44:11;;;;;;;102.43;35.72;;;;;;;;;;4979290;28;20091;-48
2022/06/05 01:46:44;;;;;;;96.03;34.72;;;;;;;;;;4981267;28;20074;-49
2022/06/05 01:49:20;;;;;;;93.90;34.10;;;;;;;;;;4981073;28;20617;-48
2022/06/05 01:51:56;;;;;;;113.50;38.63;;;;;;;;;;4979404;28;20054;-50
2022/06/05 01:54:38;;;;;;;101.55;34.78;;;;;;;;;;4981482;28;20086;-54
2022/06/05 01:57:07;;;;;;;101.40;36.78;;;;;;;;;;4981167;28;20453;-66
2022/06/05 01:59:59;;;;;;;95.55;36.88;;;;;;;;;;4980645;28;20063;-65
2022/06/05 02:02:28;;;;;;;111.05;38.05;;;;;;;;;;4978770;28;20058;-65
2022/06/05 02:05:05;;;;;;;109.78;39.40;;;;;;;;;;4983151;28;20074;-65
2022/06/05 02:07:39;;;;;;;124.50;41.50;;;;;;;;;;4980959;28;20086;-65
2022/06/05 02:10:21;;;;;;;121.18;41.47;;;;;;;;;;4979580;28;20089;-65
2022/06/05 02:12:47;;;;;;;100.57;35.80;;;;;;;;;;4981420;28;20085;-60
2022/06/05 02:15:21;;;;;;;103.13;37.05;;;;;;;;;;4976172;28;20054;-66
2022/06/05 02:17:47;;;;;;;149.30;44.40;;;;;;;;;;4975083;28;20579;-51
2022/06/05 02:20:14;;;;;;;134.00;42.35;;;;;;;;;;4975376;28;20373;-50
2022/06/05 02:22:49;;;;;;;137.18;42.83;;;;;;;;;;4964035;28;20078;-51
2022/06/05 02:25:18;;;;;;;158.98;44.22;;;;;;;;;;4980053;28;20078;-51
2022/06/05 02:27:44;;;;;;;169.48;45.78;;;;;;;;;;4978753;28;20078;-53
2022/06/05 02:30:17;;;;;;;166.20;43.90;;;;;;;;;;4979845;28;20094;-51
2022/06/05 02:33:00;;;;;;;131.63;42.08;;;;;;;;;;4974610;28;20055;-65
2022/06/05 02:35:41;;;;;;;172.90;44.55;;;;;;;;;;4981446;28;20063;-46
2022/06/05 02:38:16;;;;;;;178.73;44.35;;;;;;;;;;4980734;28;20050;-44
2022/06/05 02:40:55;;;;;;;149.52;44.40;;;;;;;;;;4979466;28;20078;-48
2022/06/05 02:43:32;;;;;;;185.77;47.17;;;;;;;;;;4979439;28;20090;-44
2022/06/05 02:46:20;;;;;;;173.98;47.30;;;;;;;;;;4975030;28;20116;-46
2022/06/05 02:48:55;;;;;;;158.13;41.83;;;;;;;;;;4980007;28;20050;-46
2022/06/05 02:51:31;;;;;;;149.50;44.08;;;;;;;;;;4979077;28;20070;-62
2022/06/05 02:53:59;;;;;;;155.05;45.20;;;;;;;;;;4979425;28;21028;-66
2022/06/05 02:56:27;;;;;;;142.43;43.90;;;;;;;;;;4977683;28;20074;-66
2022/06/05 02:59:01;;;;;;;120.55;40.30;;;;;;;;;;4976957;28;20086;-66
2022/06/05 03:04:19;;;;;;;127.45;40.58;;;;;;;;;;4977289;28;20062;-66
2022/06/05 03:06:46;;;;;;;99.18;35.40;;;;;;;;;;4979916;28;20050;-66
2022/06/05 03:09:12;;;;;;;114.80;38.90;;;;;;;;;;4978276;28;20107;-54
2022/06/05 03:11:45;;;;;;;119.38;39.33;;;;;;;;;;4977808;28;20073;-66
2022/06/05 03:14:12;;;;;;;116.00;36.67;;;;;;;;;;4980113;28;20089;-51
2022/06/05 03:16:38;;;;;;;108.60;36.53;;;;;;;;;;4977819;28;20387;-52
2022/06/05 03:19:12;;;;;;;108.07;35.85;;;;;;;;;;4981008;28;20089;-49
2022/06/05 03:21:39;;;;;;;110.05;37.80;;;;;;;;;;4977097;28;20106;-53
2022/06/05 03:24:05;;;;;;;113.90;36.88;;;;;;;;;;4979781;28;20502;-53
2022/06/05 03:26:39;;;;;;;115.20;38.17;;;;;;;;;;4977636;28;20085;-52
2022/06/05 03:29:13;;;;;;;99.00;35.35;;;;;;;;;;4977218;28;20517;-52
2022/06/05 03:31:53;;;;;;;98.07;35.67;;;;;;;;;;4977845;28;20043;-60
2022/06/05 03:34:19;;;;;;;80.70;31.10;;;;;;;;;;4976296;28;20081;-60
2022/06/05 03:36:48;;;;;;;97.13;35.17;;;;;;;;;;4976783;28;20595;-59
2022/06/05 03:39:21;;;;;;;67.00;27.92;;;;;;;;;;4958938;28;20050;-60
2022/06/05 03:41:48;;;;;;;85.72;32.28;;;;;;;;;;4976531;28;20054;-59
2022/06/05 03:44:14;;;;;;;98.43;33.58;;;;;;;;;;4977053;28;20120;-59
2022/06/05 03:46:54;;;;;;;65.47;29.15;;;;;;;;;;4977925;28;20058;-66
2022/06/05 03:49:20;;;;;;;78.05;30.50;;;;;;;;;;4977894;28;20061;-65
2022/06/05 03:51:47;;;;;;;94.85;33.80;;;;;;;;;;4978834;28;20046;-63
2022/06/05 03:54:20;;;;;;;79.15;29.77;;;;;;;;;;4973799;28;20081;-60
2022/06/05 03:56:47;;;;;;;76.43;30.90;;;;;;;;;;4978546;28;20088;-61
2022/06/05 03:59:13;;;;;;;69.53;28.10;;;;;;;;;;4977593;28;20050;-60
2022/06/05 04:01:46;;;;;;;63.22;26.25;;;;;;;;;;4977358;28;20137;-60
2022/06/05 04:04:13;;;;;;;53.13;25.83;;;;;;;;;;4978577;28;20062;-61
2022/06/05 04:06:39;;;;;;;46.85;24.42;;;;;;;;;;4978662;28;20136;-58
2022/06/05 04:09:12;;;;;;;42.05;21.42;;;;;;;;;;4963015;28;20062;-44
2022/06/05 04:11:39;;;;;;;32.97;20.45;;;;;;;;;;4979177;28;20081;-51
2022/06/05 04:14:07;;;;;;;27.50;17.27;;;;;;;;;;4980538;28;20047;-51
2022/06/05 04:16:41;;;;;;;31.98;16.88;;;;;;;;;;4980963;28;20046;-48
2022/06/05 04:19:07;;;;;;;23.58;14.98;;;;;;;;;;4982040;28;20568;-48
2022/06/05 04:21:35;;;;;;;23.07;14.77;;;;;;;;;;4978574;28;20137;-54
2022/06/05 04:24:09;;;;;;;16.70;12.93;;;;;;;;;;4982261;28;20085;-50
2022/06/05 04:26:35;;;;;;;22.08;13.20;;;;;;;;;;4980451;28;20086;-59
2022/06/05 04:29:02;;;;;;;22.30;12.75;;;;;;;;;;4982034;28;20097;-55
2022/06/05 04:31:37;;;;;;;21.00;13.40;;;;;;;;;;4983913;28;20326;-55
2022/06/05 04:34:05;;;;;;;19.17;12.20;;;;;;;;;;4980935;28;20047;-53
2022/06/05 04:36:32;;;;;;;20.10;12.27;;;;;;;;;;4982643;28;20082;-51
2022/06/05 04:39:05;;;;;;;19.08;11.98;;;;;;;;;;4971155;28;20146;-52
2022/06/05 04:41:32;;;;;;;16.27;11.88;;;;;;;;;;4981946;28;20088;-54
2022/06/05 04:43:58;;;;;;;16.95;11.90;;;;;;;;;;4981919;28;20086;-49
2022/06/05 04:46:38;;;;;;;18.45;12.02;;;;;;;;;;4963725;28;20518;-60
2022/06/05 04:49:07;;;;;;;20.45;12.20;;;;;;;;;;4959371;28;20082;-71
2022/06/05 04:51:40;;;;;;;19.75;11.75;;;;;;;;;;4962757;28;20089;-68
2022/06/05 04:54:08;;;;;;;19.70;12.32;;;;;;;;;;4964000;28;20089;-69
2022/06/05 04:56:35;;;;;;;18.88;11.88;;;;;;;;;;4960607;28;20055;-69
2022/06/05 04:59:08;;;;;;;16.10;11.02;;;;;;;;;;4983371;28;20109;-69
2022/06/05 05:01:36;;;;;;;17.42;11.98;;;;;;;;;;4981300;28;20144;-69
2022/06/05 05:04:07;;;;;;;15.07;10.45;;;;;;;;;;4983263;28;20066;-69
2022/06/05 05:06:41;;;;;;;16.10;10.05;;;;;;;;;;4974342;28;20082;-67
2022/06/05 05:09:08;;;;;;;16.70;10.45;;;;;;;;;;4978597;28;20086;-61
2022/06/05 05:11:35;;;;;;;13.75;9.82;;;;;;;;;;4977346;28;20046;-60
2022/06/05 05:14:09;;;;;;;14.52;9.95;;;;;;;;;;4977373;28;20077;-60
2022/06/05 05:16:35;;;;;;;11.93;8.00;;;;;;;;;;4974523;28;20102;-61
2022/06/05 05:19:06;;;;;;;13.80;8.85;;;;;;;;;;4979415;28;20055;-60
2022/06/05 05:21:38;;;;;;;12.35;8.73;;;;;;;;;;4975738;28;20042;-61
2022/06/05 05:24:07;;;;;;;12.95;7.95;;;;;;;;;;4975713;28;20069;-57
2022/06/05 05:26:34;;;;;;;15.50;8.75;;;;;;;;;;4977860;28;20510;-49
2022/06/05 05:29:07;;;;;;;12.35;7.13;;;;;;;;;;4979113;28;20097;-52
2022/06/05 05:31:35;;;;;;;10.85;6.88;;;;;;;;;;4975856;28;20151;-52
2022/06/05 05:34:02;;;;;;;10.85;6.22;;;;;;;;;;4977238;28;20050;-49
2022/06/05 05:36:36;;;;;;;10.18;6.10;;;;;;;;;;4978639;28;20050;-50
2022/06/05 05:42:04;;;;;;;13.15;6.30;;;;;;;;;;4981087;28;20042;-57
2022/06/05 05:44:46;;;;;;;8.85;6.03;;;;;;;;;;4979608;28;20153;-56
2022/06/05 05:47:28;;;;;;;9.00;5.97;;;;;;;;;;4978811;28;20145;-47
2022/06/05 05:49:56;;;;;;;8.77;6.05;;;;;;;;;;4981496;28;20094;-48
2022/06/05 05:52:30;;;;;;;9.77;5.82;;;;;;;;;;4975867;28;20513;-50
2022/06/05 05:54:56;;;;;;;9.43;4.82;;;;;;;;;;4982172;28;20106;-51
2022/06/05 05:57:23;;;;;;;8.73;5.93;;;;;;;;;;4964900;28;20084;-48
2022/06/05 05:59:56;;;;;;;9.30;6.00;;;;;;;;;;4979629;28;20150;-51
2022/06/05 06:02:23;;;;;;;8.70;4.82;;;;;;;;;;4974882;28;20050;-55
2022/06/05 06:04:51;;;;;;;12.60;5.68;;;;;;;;;;4978588;28;20085;-61
2022/06/05 06:07:23;;;;;;;9.20;5.10;;;;;;;;;;4957433;28;20518;-61
2022/06/05 06:09:50;;;;;;;9.18;4.93;;;;;;;;;;4960972;28;20090;-61
2022/06/05 06:12:21;;;;;;;7.65;4.97;;;;;;;;;;4959069;28;20055;-61
2022/06/05 06:14:54;;;;;;;9.77;5.22;;;;;;;;;;4958986;28;20392;-61
2022/06/05 06:17:21;;;;;;;10.05;4.95;;;;;;;;;;4960000;28;20129;-61
2022/06/05 06:19:47;;;;;;;7.95;5.07;;;;;;;;;;4961051;28;20493;-67
2022/06/05 06:22:20;;;;;;;9.48;5.20;;;;;;;;;;4961691;28;20079;-57
2022/06/05 06:24:47;;;;;;;7.15;4.78;;;;;;;;;;4959244;28;20066;-61
2022/06/05 06:27:13;;;;;;;7.07;4.90;;;;;;;;;;4961049;28;20499;-61
2022/06/05 06:29:47;;;;;;;6.47;4.55;;;;;;;;;;4959448;28;20471;-61
2022/06/05 06:32:13;;;;;;;9.05;4.57;;;;;;;;;;4960604;28;20089;-60
2022/06/05 06:34:39;;;;;;;8.30;4.85;;;;;;;;;;4958448;28;20167;-61
2022/06/05 06:37:12;;;;;;;8.65;4.72;;;;;;;;;;4959005;28;20553;-60
2022/06/05 06:39:39;;;;;;;7.95;4.97;;;;;;;;;;4955081;28;20121;-49
2022/06/05 06:42:05;;;;;;;6.25;4.15;;;;;;;;;;4956169;28;20101;-48
2022/06/05 06:44:45;;;;;;;5.70;4.38;;;;;;;;;;4958665;28;20141;-61
2022/06/05 06:47:18;;;;;;;6.22;4.35;;;;;;;;;;4958724;28;20066;-61
2022/06/05 06:49:51;;;;;;;7.68;4.80;;;;;;;;;;4957208;28;20085;-61
2022/06/05 06:52:18;;;;;;;7.35;4.38;;;;;;;;;;4960046;28;20180;-61
2022/06/05 06:54:44;;;;;;;5.53;4.28;;;;;;;;;;4958307;28;20094;-61
2022/06/05 06:57:17;;;;;;;8.43;4.07;;;;;;;;;;4956359;28;20134;-51
2022/06/05 06:59:44;;;;;;;5.93;3.47;;;;;;;;;;4957919;28;20214;-62
2022/06/05 07:02:10;;;;;;;5.80;3.40;;;;;;;;;;4960210;28;20101;-56
2022/06/05 07:04:43;;;;;;;5.35;3.42;;;;;;;;;;4958345;28;20514;-55
2022/06/05 07:07:10;;;;;;;5.00;3.20;;;;;;;;;;4959813;28;21643;-54
2022/06/05 07:09:36;;;;;;;5.20;3.30;;;;;;;;;;4958559;28;20063;-57
2022/06/05 07:12:09;;;;;;;5.75;3.33;;;;;;;;;;4958483;28;20078;-57
2022/06/05 07:14:36;;;;;;;5.20;3.35;;;;;;;;;;4958985;28;20059;-58
2022/06/05 07:17:03;;;;;;;3.67;2.53;;;;;;;;;;4961883;28;20780;-48
2022/06/05 07:19:36;;;;;;;8.57;3.15;;;;;;;;;;4956693;28;20086;-45
2022/06/05 07:22:03;;;;;;;5.80;2.95;;;;;;;;;;4957345;28;20566;-61
2022/06/05 07:24:29;;;;;;;4.65;2.78;;;;;;;;;;4958575;28;20105;-62
2022/06/05 07:27:02;;;;;;;5.85;3.50;;;;;;;;;;4959142;28;20605;-62
2022/06/05 07:29:29;;;;;;;5.00;3.40;;;;;;;;;;4956777;28;20059;-62
2022/06/05 07:31:55;;;;;;;4.55;3.00;;;;;;;;;;4955638;28;20055;-63
2022/06/05 07:34:28;;;;;;;5.18;3.13;;;;;;;;;;4961010;28;21042;-62
2022/06/05 07:36:55;;;;;;;5.13;3.15;;;;;;;;;;4958820;28;20125;-56
2022/06/05 07:39:21;;;;;;;7.90;2.97;;;;;;;;;;4959814;28;20079;-57
2022/06/05 07:41:58;;;;;;;4.63;2.17;;;;;;;;;;4959431;28;20629;-54
2022/06/05 07:44:25;;;;;;;3.67;2.20;;;;;;;;;;4958634;28;20153;-57
2022/06/05 07:46:52;;;;;;;4.15;2.40;;;;;;;;;;4959414;28;20094;-57
2022/06/05 07:49:25;;;;;;;2.97;2.08;;;;;;;;;;4957702;28;20085;-55
2022/06/05 07:54:46;;;;;;;4.78;2.50;;;;;;;;;;4961926;28;20517;-51
2022/06/05 07:57:13;;;;;;;3.33;1.98;;;;;;;;;;4959289;28;20494;-48
2022/06/05 07:59:41;;;;;;;2.85;2.50;;;;;;;;;;4960747;28;20057;-60
2022/06/05 08:02:25;;;;;;;3.78;2.13;;;;;;;;;;4959664;28;20085;-60
2022/06/05 08:04:52;;;;;;;4.25;2.55;;;;;;;;;;4961597;28;20101;-61
2022/06/05 08:07:26;;;;;;;5.28;2.65;;;;;;;;;;4958721;28;20098;-60
2022/06/05 08:09:53;;;;;;;4.10;2.38;;;;;;;;;;4962078;28;20101;-60
2022/06/05 08:12:20;;;;;;;2.90;2.10;;;;;;;;;;4959891;28;20078;-60
2022/06/05 08:14:54;;;;;;;5.93;2.40;;;;;;;;;;4961539;28;20085;-50
2022/06/05 08:17:26;;;;;;;3.65;2.08;;;;;;;;;;4960049;28;20102;-46
2022/06/05 08:19:53;;;;;;;3.10;2.10;;;;;;;;;;4960816;28;20078;-68
2022/06/05 08:22:27;;;;;;;4.78;1.95;;;;;;;;;;4962549;28;20070;-68
2022/06/05 08:24:54;;;;;;;2.97;1.63;;;;;;;;;;4959129;28;20094;-68
2022/06/05 08:27:23;;;;;;;2.70;1.95;;;;;;;;;;4964837;28;20055;-69
2022/06/05 08:29:57;;;;;;;3.40;2.10;;;;;;;;;;4961011;28;20502;-69
2022/06/05 08:32:27;;;;;;;2.13;1.70;;;;;;;;;;4958787;28;20094;-69
2022/06/05 08:34:54;;;;;;;2.35;1.73;;;;;;;;;;4959847;28;20105;-47
2022/06/05 08:43:23;;;;;;;4.10;2.22;;;;;;;;;;4962826;28;20050;-50
2022/06/05 08:46:05;;;;;;;3.35;1.98;;;;;;;;;;4961096;28;20138;-51
2022/06/05 08:48:41;;;;;;;3.22;2.10;;;;;;;;;;4959130;28;20063;-47
2022/06/05 08:51:18;;;;;;;2.83;2.10;;;;;;;;;;4960977;28;20165;-51
2022/06/05 08:54:03;;;;;;;7.00;2.70;;;;;;;;;;4961965;28;20050;-59
2022/06/05 08:56:38;;;;;;;3.88;2.35;;;;;;;;;;4959522;28;20074;-62
2022/06/05 08:59:15;;;;;;;3.85;2.58;;;;;;;;;;4960042;28;20282;-61
2022/06/05 09:02:07;;;;;;;4.65;2.10;;;;;;;;;;4958436;28;20086;-62
2022/06/05 09:04:52;;;;;;;5.60;2.42;;;;;;;;;;4945980;28;20097;-62
2022/06/05 09:07:21;;;;;;;4.93;2.75;;;;;;;;;;4963405;28;20410;-62
2022/06/05 09:10:07;;;;;;;4.72;2.65;;;;;;;;;;4957825;28;20087;-62
2022/06/05 09:12:35;;;;;;;6.47;2.80;;;;;;;;;;4960989;28;20085;-57
2022/06/05 09:15:15;;;;;;;6.45;2.75;;;;;;;;;;4964188;28;20094;-62
2022/06/05 09:17:45;;;;;;;3.97;2.40;;;;;;;;;;4962087;28;20097;-59
2022/06/05 09:20:23;;;;;;;7.63;2.65;;;;;;;;;;4960628;28;20089;-59
2022/06/05 09:22:57;;;;;;;5.72;2.72;;;;;;;;;;4962092;28;20085;-59
2022/06/05 09:25:40;;;;;;;3.90;2.67;;;;;;;;;;4960820;28;20530;-59
2022/06/05 09:28:06;;;;;;;3.50;2.58;;;;;;;;;;4958724;28;20047;-59
2022/06/05 09:30:49;;;;;;;5.30;2.50;;;;;;;;;;4961632;28;20055;-60
2022/06/05 09:33:20;;;;;;;8.15;2.60;;;;;;;;;;4961268;28;20101;-56
2022/06/05 09:35:56;;;;;;;4.60;2.88;;;;;;;;;;4964048;28;20058;-58
2022/06/05 09:38:43;;;;;;;5.38;2.78;;;;;;;;;;4961781;28;20101;-57
2022/06/05 09:41:46;;;;;;;4.88;2.50;;;;;;;;;;4956746;28;20102;-57
2022/06/05 09:44:18;;;;;;;3.58;2.40;;;;;;;;;;4952928;28;20047;-57
2022/06/05 09:47:06;;;;;;;3.65;2.35;;;;;;;;;;4958102;28;20094;-56
2022/06/05 09:49:42;;;;;;;5.85;2.28;;;;;;;;;;4958110;28;20137;-61
2022/06/05 09:52:16;;;;;;;3.22;2.53;;;;;;;;;;4957102;28;20467;-59
2022/06/05 09:54:50;;;;;;;3.58;2.50;;;;;;;;;;4957332;28;20391;-60
2022/06/05 10:00:14;;;;;;;3.60;2.35;;;;;;;;;;4956794;28;20056;-60
2022/06/05 10:02:49;;;;;;;4.13;2.60;;;;;;;;;;4958723;28;20074;-60
2022/06/05 10:05:25;;;;;;;3.95;2.05;;;;;;;;;;4946563;28;20073;-60
2022/06/05 10:08:05;;;;;;;3.47;2.22;;;;;;;;;;4959983;28;20079;-60
2022/06/05 10:10:36;;;;;;;4.30;2.13;;;;;;;;;;4978649;28;20108;-48
2022/06/05 10:13:13;;;;;;;3.53;2.28;;;;;;;;;;4978520;28;20082;-71
2022/06/05 10:15:49;;;;;;;4.50;2.05;;;;;;;;;;4977967;28;20395;-70
2022/06/05 10:18:27;;;;;;;3.78;1.95;;;;;;;;;;4976055;28;20140;-70
2022/06/05 10:20:56;;;;;;;3.85;1.73;;;;;;;;;;4980122;28;20082;-70
2022/06/05 10:23:36;;;;;;;2.35;2.00;;;;;;;;;;4974387;28;20789;-70
2022/06/05 10:26:14;;;;;;;1.73;1.55;;;;;;;;;;4978081;28;20054;-71
2022/06/05 10:28:50;;;;;;;7.55;1.85;;;;;;;;;;4978121;28;20128;-56
2022/06/05 10:31:20;;;;;;;5.80;1.85;;;;;;;;;;4978970;28;20094;-45
2022/06/05 10:34:02;;;;;;;3.78;1.63;;;;;;;;;;4981062;28;20145;-46
2022/06/05 10:36:41;;;;;;;3.08;1.90;;;;;;;;;;4975982;28;20058;-48
2022/06/05 10:39:21;;;;;;;2.15;1.60;;;;;;;;;;4976467;28;20532;-48
2022/06/05 12:54:48;;;;;;;3.58;1.70;;;;;;;;;;4963079;28;20058;-59
2022/06/05 12:57:52;;;;;;;2.17;1.40;;;;;;;;;;4977049;28;20085;-60
2022/06/05 13:00:33;;;;;;;1.23;1.13;;;;;;;;;;4934529;28;20155;-52
2022/06/05 13:03:29;;;;;;;1.90;1.30;;;;;;;;;;4977743;28;20085;-73
2022/06/05 13:05:58;;;;;;;2.80;1.77;;;;;;;;;;4975473;28;20453;-61
2022/06/05 13:08:37;;;;;;;2.17;1.30;;;;;;;;;;4979227;28;20124;-60
2022/06/05 13:11:04;;;;;;;3.58;1.25;;;;;;;;;;4978591;28;20129;-60
2022/06/05 13:13:44;;;;;;;5.85;1.83;;;;;;;;;;4977009;28;20457;-61
2022/06/05 13:16:17;;;;;;;2.05;1.65;;;;;;;;;;4977627;28;20073;-60
2022/06/05 13:19:00;;;;;;;2.45;1.40;;;;;;;;;;4978180;28;20450;-56
2022/06/05 13:21:32;;;;;;;3.88;1.50;;;;;;;;;;4975656;28;20109;-59
2022/06/05 13:24:12;;;;;;;2.65;1.60;;;;;;;;;;4980335;28;20156;-61
2022/06/05 13:26:53;;;;;;;2.80;1.65;;;;;;;;;;4979415;28;20149;-61
2022/06/05 13:29:36;;;;;;;1.90;1.70;;;;;;;;;;4977366;28;20054;-60
2022/06/05 13:32:21;;;;;;;1.98;1.58;;;;;;;;;;4979466;28;20110;-62
2022/06/05 13:35:27;;;;;;;2.45;1.42;;;;;;;;;;4976702;28;20141;-61
2022/06/05 13:38:05;;;;;;;2.95;1.70;;;;;;;;;;4979846;28;20412;-53
2022/06/05 13:40:40;;;;;;;3.22;1.50;;;;;;;;;;4978056;28;20078;-61
2022/06/05 13:43:14;;;;;;;2.72;1.48;;;;;;;;;;4977490;28;20496;-53
2022/06/05 13:45:51;;;;;;;1.70;1.45;;;;;;;;;;4980002;28;20051;-52
2022/06/05 13:48:37;;;;;;;3.75;1.80;;;;;;;;;;4978634;28;20054;-54
2022/06/05 13:51:21;;;;;;;3.17;1.77;;;;;;;;;;4977452;28;20077;-52
2022/06/05 13:53:59;;;;;;;2.97;1.80;;;;;;;;;;4980395;28;20078;-54
2022/06/05 13:56:42;;;;;;;3.00;1.77;;;;;;;;;;4958285;28;20059;-50
2022/06/05 13:59:17;;;;;;;1.98;1.77;;;;;;;;;;4961532;28;20138;-48
2022/06/05 14:02:21;;;;;;;2.17;1.70;;;;;;;;;;4957268;28;20533;-61
2022/06/05 14:04:56;;;;;;;2.97;1.90;;;;;;;;;;4955087;28;20059;-61
2022/06/05 14:07:32;;;;;;;1.60;1.50;;;;;;;;;;4958474;28;20050;-61
2022/06/05 14:10:17;;;;;;;4.55;2.08;;;;;;;;;;4955680;28;20458;-61
2022/06/05 14:13:13;;;;;;;2.80;1.83;;;;;;;;;;4954610;28;20190;-61
2022/06/05 14:15:45;;;;;;;2.38;1.70;;;;;;;;;;4956576;28;20146;-76
2022/06/05 14:18:19;;;;;;;3.78;1.70;;;;;;;;;;4955370;28;20102;-52
2022/06/05 14:20:47;;;;;;;3.05;1.70;;;;;;;;;;4959421;28;20090;-50
2022/06/05 14:23:18;;;;;;;2.58;1.75;;;;;;;;;;4957575;28;20105;-51
2022/06/05 14:25:55;;;;;;;5.10;1.90;;;;;;;;;;4957101;28;20132;-48
2022/06/05 14:28:25;;;;;;;2.55;1.90;;;;;;;;;;4963160;28;20054;-50
2022/06/05 14:31:00;;;;;;;3.33;1.90;;;;;;;;;;4954524;28;20153;-46
2022/06/05 14:33:35;;;;;;;5.20;2.20;;;;;;;;;;4960586;28;20053;-46
2022/06/05 14:36:10;;;;;;;2.20;1.60;;;;;;;;;;4956452;28;20145;-54
2022/06/05 14:38:40;;;;;;;3.28;2.17;;;;;;;;;;4954280;28;20137;-59
2022/06/05 14:41:14;;;;;;;4.00;1.92;;;;;;;;;;4955686;28;20062;-58
2022/06/05 14:43:52;;;;;;;3.47;1.73;;;;;;;;;;4956195;28;20625;-58
2022/06/05 14:46:37;;;;;;;2.22;1.90;;;;;;;;;;4958189;28;20471;-58
2022/06/05 14:49:11;;;;;;;2.55;1.63;;;;;;;;;;4956905;28;20051;-58
2022/06/05 14:51:44;;;;;;;2.78;1.70;;;;;;;;;;4955496;28;20569;-59
2022/06/05 14:57:53;;;;;;;4.90;2.00;;;;;;;;;;4979237;28;20117;-61
2022/06/05 15:00:39;;;;;;;2.05;1.83;;;;;;;;;;4976663;28;20086;-62
2022/06/05 15:03:35;;;;;;;4.05;2.05;;;;;;;;;;4975721;28;20116;-62
2022/06/05 15:06:10;;;;;;;2.45;1.63;;;;;;;;;;4946525;28;20053;-62
2022/06/05 15:08:55;;;;;;;1.98;1.70;;;;;;;;;;4971869;28;20137;-62
2022/06/05 15:11:32;;;;;;;3.28;2.00;;;;;;;;;;4975138;28;20085;-62
2022/06/05 15:14:05;;;;;;;2.63;1.73;;;;;;;;;;4973632;28;20050;-63
2022/06/05 15:17:05;;;;;;;3.90;1.75;;;;;;;;;;4973770;28;20218;-62
2022/06/05 15:19:33;;;;;;;2.58;2.10;;;;;;;;;;4946209;28;20540;-62
2022/06/05 15:22:06;;;;;;;4.03;1.90;;;;;;;;;;4975847;28;20050;-63
2022/06/05 15:24:32;;;;;;;2.83;2.10;;;;;;;;;;4958034;28;20058;-62
2022/06/05 15:27:18;;;;;;;3.40;1.90;;;;;;;;;;4975966;28;20519;-62
2022/06/05 15:30:08;;;;;;;3.88;1.80;;;;;;;;;;4972125;28;20054;-63
2022/06/05 15:32:39;;;;;;;4.03;1.90;;;;;;;;;;4978285;28;20059;-57
2022/06/05 15:35:31;;;;;;;3.35;2.00;;;;;;;;;;4977201;28;20074;-50
2022/06/05 15:38:09;;;;;;;3.58;1.77;;;;;;;;;;4973814;28;20050;-48
2022/06/05 15:40:54;;;;;;;4.15;1.98;;;;;;;;;;4975991;28;20088;-51
2022/06/05 15:43:29;;;;;;;3.45;2.00;;;;;;;;;;4976564;28;20517;-50
2022/06/05 15:46:26;;;;;;;2.17;1.92;;;;;;;;;;4974859;28;20098;-52
2022/06/05 15:49:04;;;;;;;2.10;1.80;;;;;;;;;;4977046;28;20060;-48
2022/06/05 15:51:56;;;;;;;2.30;1.70;;;;;;;;;;4978376;28;20050;-47
2022/06/05 15:54:29;;;;;;;2.65;1.73;;;;;;;;;;4976984;28;20102;-62
2022/06/05 15:57:09;;;;;;;2.45;1.90;;;;;;;;;;4979142;28;20085;-69
2022/06/05 15:59:58;;;;;;;2.35;1.70;;;;;;;;;;4976524;28;20062;-69
2022/06/05 16:02:32;;;;;;;3.17;2.05;;;;;;;;;;4975489;28;20513;-69
2022/06/05 16:05:01;;;;;;;3.80;2.10;;;;;;;;;;4976029;28;20147;-69
2022/06/05 16:07:30;;;;;;;4.32;1.90;;;;;;;;;;4977651;28;20082;-69
2022/06/05 16:10:10;;;;;;;3.70;1.63;;;;;;;;;;4974601;28;20055;-52
2022/06/05 16:12:37;;;;;;;3.55;1.95;;;;;;;;;;4979154;28;20544;-50
2022/06/05 16:15:29;;;;;;;2.95;1.95;;;;;;;;;;4984237;28;20054;-49
2022/06/05 16:18:02;;;;;;;2.92;1.90;;;;;;;;;;4977471;28;20062;-49
2022/06/05 16:20:39;;;;;;;2.75;2.13;;;;;;;;;;4980680;28;20114;-47
2022/06/05 16:23:05;;;;;;;2.38;1.98;;;;;;;;;;4981590;28;20121;-47
2022/06/05 16:25:34;;;;;;;2.60;1.73;;;;;;;;;;4980542;28;20097;-50
2022/06/05 16:28:16;;;;;;;1.98;1.70;;;;;;;;;;4979293;28;20067;-49
2022/06/05 16:30:44;;;;;;;2.95;1.90;;;;;;;;;;4981109;28;20086;-44
2022/06/05 16:33:18;;;;;;;2.75;2.17;;;;;;;;;;4976269;28;20080;-64
2022/06/05 16:38:46;;;;;;;2.67;1.92;;;;;;;;;;4976994;28;20062;-64
2022/06/05 16:41:12;;;;;;;4.32;2.05;;;;;;;;;;4978742;28;20085;-64
2022/06/05 16:43:39;;;;;;;2.47;1.90;;;;;;;;;;4975145;28;20098;-65
2022/06/05 16:46:13;;;;;;;2.97;2.00;;;;;;;;;;4981326;28;20046;-64
2022/06/05 16:48:56;;;;;;;2.42;2.13;;;;;;;;;;4979209;28;20060;-50
2022/06/05 16:51:38;;;;;;;2.83;2.05;;;;;;;;;;4979065;28;20097;-51
2022/06/05 16:54:10;;;;;;;2.38;2.10;;;;;;;;;;4976392;28;20082;-46
2022/06/05 16:57:08;;;;;;;4.75;2.30;;;;;;;;;;4962202;28;20314;-45
2022/06/05 16:59:47;;;;;;;4.88;2.60;;;;;;;;;;4967232;28;20066;-45
2022/06/05 17:02:21;;;;;;;6.18;2.70;;;;;;;;;;4966062;28;20058;-45
2022/06/05 17:05:06;;;;;;;3.73;2.70;;;;;;;;;;4964744;28;20086;-42
2022/06/05 17:07:52;;;;;;;5.50;3.25;;;;;;;;;;4967365;28;20062;-52
2022/06/05 17:10:24;;;;;;;5.00;3.47;;;;;;;;;;4966267;28;20544;-55
2022/06/05 17:13:24;;;;;;;6.00;3.45;;;;;;;;;;4963524;28;20059;-70
2022/06/05 17:15:58;;;;;;;5.88;3.28;;;;;;;;;;4965157;28;20576;-69
2022/06/05 17:18:39;;;;;;;6.65;3.22;;;;;;;;;;4967469;28;20097;-70
2022/06/05 17:21:10;;;;;;;5.25;3.42;;;;;;;;;;4969103;28;20061;-69
2022/06/05 17:23:43;;;;;;;6.20;3.60;;;;;;;;;;4950059;28;20051;-71
2022/06/05 17:26:12;;;;;;;6.80;3.80;;;;;;;;;;4965665;28;20058;-47
2022/06/05 17:29:09;;;;;;;6.47;3.60;;;;;;;;;;4965979;28;20473;-53
2022/06/05 17:31:59;;;;;;;4.75;3.55;;;;;;;;;;4954497;28;20474;-48
2022/06/05 17:34:36;;;;;;;5.80;3.85;;;;;;;;;;4964447;28;20062;-47
2022/06/05 17:37:28;;;;;;;7.35;3.85;;;;;;;;;;4966671;28;20142;-48
2022/06/05 17:39:58;;;;;;;4.95;3.60;;;;;;;;;;4962921;28;20059;-50
2022/06/05 17:42:31;;;;;;;7.63;3.63;;;;;;;;;;4965793;28;20094;-50
2022/06/05 17:45:16;;;;;;;4.95;3.78;;;;;;;;;;4965645;28;20043;-47
2022/06/05 17:48:07;;;;;;;4.72;3.50;;;;;;;;;;4966287;28;20063;-52
2022/06/05 17:50:43;;;;;;;7.13;3.47;;;;;;;;;;4966242;28;20055;-48
2022/06/05 17:53:21;;;;;;;4.47;3.78;;;;;;;;;;4963660;28;20096;-49
2022/06/05 17:55:56;;;;;;;7.03;4.10;;;;;;;;;;4970878;28;20152;-52